Flight Track Log - Related Links

Times and Time Zones

All times are in EDT time to prevent confusion due to time zone crossing. See the ACA620 flight status page for this flight to view local times or setup timezone preferences in your user account.

Time Position Orientation Groundspeed Altitude Reporting Facility
EDT Latitude Longitude Course Direction KTS MPH feet Rate Location/Type
Fri 07:33:16 PM 43.6450 -79.6460 225° Southwest 154 177 3,200  Level FlightAware ADS-B
Fri 07:33:46 PM 43.6290 -79.6660 222° Southwest 172 198 4,400 2,100 Climbing FlightAware ADS-B
Fri 07:33:56 PM 43.6200 -79.6690 194° South 192 221 4,600 1,200 Climbing FlightAware ADS-B
Fri 07:34:26 PM 43.5950 -79.6470 147° Southeast 249 287 5,200 800 Climbing FlightAware ADS-B
Fri 07:34:41 PM 43.5850 -79.6270 125° Southeast 264 304 5,200  Level FlightAware ADS-B
Fri 07:35:11 PM 43.5620 -79.5800 124° Southeast 267 307 5,200  Level FlightAware ADS-B
Fri 07:35:36 PM 43.5470 -79.5500 125° Southeast 270 311 5,200 120 Level FlightAware ADS-B
Fri 07:36:01 PM 43.5320 -79.5070 116° Southeast 278 320 5,300 120 Climbing FlightAware ADS-B
Fri 07:36:26 PM 43.5260 -79.4680 102° East 278 320 5,300 1,800 Level FlightAware ADS-B
Fri 07:37:41 PM 43.5600 -79.3300 71° East 307 353 8,300 2,262 Climbing FlightAware ADS-B
Fri 07:38:36 PM 43.5840 -79.2250 72° East 319 367 10,200 1,200 Climbing FlightAware ADS-B
Fri 07:39:16 PM 43.5990 -79.1590 73° East 319 367 10,200  Level FlightAware ADS-B
Fri 07:39:56 PM 43.6150 -79.0930 71° East 319 367 10,200 5,642 Level FlightAware ADS-B
Fri 07:40:23 PM 43.6500 -78.9667 71° East 380 437 16,500 3,111 Climbing Toronto Center
Fri 07:46:36 PM 43.8740 -77.9280 71° East 31,000 2,333 Climbing FlightAware ADS-B
Fri 07:46:41 PM 43.8760 -77.9150 78° East 514 592 31,200 2,182 Climbing FlightAware ADS-B
Fri 07:47:31 PM 43.9010 -77.7450 78° East 512 589 33,000 1,200 Climbing FlightAware ADS-B
Fri 07:48:11 PM 43.9200 -77.6140 79° East 515 593 33,000  Level FlightAware ADS-B
Fri 07:48:56 PM 43.9400 -77.4720 79° East 511 588 33,000  Level FlightAware ADS-B
Fri 07:49:36 PM 43.9580 -77.3430 79° East 507 583 33,000  Level FlightAware ADS-B
Fri 07:50:16 PM 43.9740 -77.2150 80° East 503 579 33,000  Level FlightAware ADS-B
Fri 07:51:01 PM 43.9930 -77.0710 80° East 500 575 33,000  Level FlightAware ADS-B
Fri 07:51:41 PM 44.0100 -76.9410 80° East 501 577 33,000  Level FlightAware ADS-B
Fri 07:52:26 PM 44.0290 -76.7980 79° East 503 579 33,000  Level FlightAware ADS-B
Fri 07:53:06 PM 44.0440 -76.6770 80° East 506 582 33,000  Level FlightAware ADS-B
Fri 07:53:46 PM 44.0610 -76.5470 80° East 507 583 33,000  Level FlightAware ADS-B
Fri 07:54:31 PM 44.0790 -76.3990 80° East 510 587 33,000  Level FlightAware ADS-B
Fri 07:55:11 PM 44.0950 -76.2720 80° East 512 589 33,000  Level FlightAware ADS-B
Fri 07:55:51 PM 44.1110 -76.1440 80° East 512 589 33,000  Level FlightAware ADS-B
Fri 07:56:36 PM 44.1290 -75.9940 80° East 512 589 33,000  Level FlightAware ADS-B
Fri 07:57:16 PM 44.1440 -75.8670 81° East 510 587 33,000  Level FlightAware ADS-B
Fri 07:58:01 PM 44.1610 -75.7200 81° East 509 586 33,000  Level FlightAware ADS-B
Fri 07:58:41 PM 44.1770 -75.5920 80° East 510 587 33,000  Level FlightAware ADS-B
Fri 07:59:21 PM 44.1920 -75.4590 81° East 510 587 33,000  Level FlightAware ADS-B
Fri 08:00:06 PM 44.2090 -75.3130 81° East 511 588 33,000  Level FlightAware ADS-B
Fri 08:00:46 PM 44.2240 -75.1770 81° East 513 590 33,000  Level FlightAware ADS-B
Fri 08:01:26 PM 44.2380 -75.0570 81° East 514 592 33,000  Level FlightAware ADS-B
Fri 08:02:11 PM 44.2530 -74.9210 81° East 515 593 33,000  Level FlightAware ADS-B
Fri 08:02:51 PM 44.2680 -74.7870 81° East 515 593 33,000  Level FlightAware ADS-B
Fri 08:03:36 PM 44.2850 -74.6270 82° East 514 592 33,000  Level FlightAware ADS-B
Fri 08:04:31 PM 44.3050 -74.4480 81° East 514 592 33,000  Level FlightAware ADS-B
Fri 08:05:06 PM 44.3160 -74.3370 82° East 515 593 33,000  Level FlightAware ADS-B
Fri 08:05:51 PM 44.3320 -74.1860 82° East 514 592 33,000  Level FlightAware ADS-B
Fri 08:06:31 PM 44.3460 -74.0530 82° East 514 592 33,000  Level FlightAware ADS-B
Fri 08:07:16 PM 44.3600 -73.9150 82° East 514 592 33,000  Level FlightAware ADS-B
Fri 08:08:01 PM 44.3750 -73.7610 82° East 515 593 33,000  Level FlightAware ADS-B
Fri 08:08:41 PM 44.3880 -73.6320 82° East 515 593 33,000  Level FlightAware ADS-B
Fri 08:09:26 PM 44.4030 -73.4880 82° East 514 592 33,000  Level FlightAware ADS-B
Fri 08:10:06 PM 44.4160 -73.3490 82° East 513 590 33,000  Level FlightAware ADS-B
Fri 08:10:41 PM 44.4270 -73.2360 82° East 511 588 33,000  Level FlightAware ADS-B
Fri 08:11:31 PM 44.4430 -73.0720 82° East 510 587 33,000  Level FlightAware ADS-B
Fri 08:12:11 PM 44.4540 -72.9430 83° East 510 587 33,000  Level FlightAware ADS-B
Fri 08:12:56 PM 44.4680 -72.7950 82° East 509 586 33,000  Level FlightAware ADS-B
Fri 08:13:31 PM 44.4790 -72.6820 82° East 507 583 33,000  Level FlightAware ADS-B
Fri 08:14:21 PM 44.4940 -72.5060 83° East 506 582 33,000  Level FlightAware ADS-B
Fri 08:15:01 PM 44.5050 -72.3790 83° East 506 582 33,000  Level FlightAware ADS-B
Fri 08:15:41 PM 44.5170 -72.2450 83° East 507 583 33,000  Level FlightAware ADS-B
Fri 08:16:26 PM 44.5290 -72.1030 83° East 507 583 33,000  Level FlightAware ADS-B
Fri 08:17:06 PM 44.5400 -71.9750 83° East 507 583 33,000  Level FlightAware ADS-B
Fri 08:17:46 PM 44.5510 -71.8470 83° East 508 585 33,000  Level FlightAware ADS-B
Fri 08:18:31 PM 44.5640 -71.6900 83° East 509 586 33,000  Level FlightAware ADS-B
Fri 08:19:11 PM 44.5740 -71.5600 84° East 509 586 33,000  Level FlightAware ADS-B
Fri 08:19:56 PM 44.5860 -71.4160 83° East 510 587 33,000  Level FlightAware ADS-B
Fri 08:20:36 PM 44.5960 -71.2850 84° East 509 586 33,000  Level FlightAware ADS-B
Fri 08:21:16 PM 44.6060 -71.1550 84° East 507 583 33,000  Level FlightAware ADS-B
Fri 08:22:01 PM 44.6180 -71.0050 84° East 506 582 33,000  Level FlightAware ADS-B
Fri 08:22:36 PM 44.6260 -70.8930 84° East 506 582 33,000  Level FlightAware ADS-B
Fri 08:23:26 PM 44.6380 -70.7300 84° East 504 580 33,000  Level FlightAware ADS-B
Fri 08:24:06 PM 44.6470 -70.5990 84° East 502 578 33,000  Level FlightAware ADS-B
Fri 08:24:51 PM 44.6580 -70.4520 84° East 501 577 33,000  Level FlightAware ADS-B
Fri 08:25:31 PM 44.6670 -70.3230 84° East 501 577 33,000  Level FlightAware ADS-B
Fri 08:26:16 PM 44.6770 -70.1810 84° East 501 577 33,000  Level FlightAware ADS-B
Fri 08:26:56 PM 44.6850 -70.0520 85° East 501 577 33,000  Level FlightAware ADS-B
Fri 08:27:41 PM 44.6950 -69.9010 85° East 501 577 33,000  Level FlightAware ADS-B
Fri 08:28:21 PM 44.7040 -69.7730 84° East 500 575 33,000  Level FlightAware ADS-B
Fri 08:29:01 PM 44.7120 -69.6460 85° East 499 574 33,000  Level FlightAware ADS-B
Fri 08:29:46 PM 44.7210 -69.5000 85° East 500 575 33,000  Level FlightAware ADS-B
Fri 08:30:21 PM 44.7280 -69.3860 85° East 501 577 33,000  Level FlightAware ADS-B
Fri 08:31:11 PM 44.7380 -69.2260 85° East 501 577 33,000  Level FlightAware ADS-B
Fri 08:31:51 PM 44.7450 -69.0950 86° East 502 578 33,000  Level FlightAware ADS-B
Fri 08:32:31 PM 44.7530 -68.9660 85° East 503 579 33,000  Level FlightAware ADS-B
Fri 08:33:11 PM 44.7600 -68.8360 86° East 503 579 33,000  Level FlightAware ADS-B
Fri 08:33:56 PM 44.7680 -68.6890 86° East 505 581 33,000  Level FlightAware ADS-B
Fri 08:34:41 PM 44.7760 -68.5400 86° East 506 582 33,000  Level FlightAware ADS-B
Fri 08:35:21 PM 44.7830 -68.4080 86° East 507 583 33,000  Level FlightAware ADS-B
Fri 08:36:01 PM 44.7900 -68.2790 86° East 506 582 33,000  Level FlightAware ADS-B
Fri 08:36:46 PM 44.7980 -68.1280 86° East 504 580 33,000  Level FlightAware ADS-B
Fri 08:37:26 PM 44.8040 -67.9980 86° East 502 578 33,000  Level FlightAware ADS-B
Fri 08:38:11 PM 44.8110 -67.8530 86° East 501 577 33,000  Level FlightAware ADS-B
Fri 08:38:51 PM 44.8170 -67.7220 86° East 501 577 33,000  Level FlightAware ADS-B
Fri 08:39:21 PM 44.8210 -67.6290 86° East 500 575 33,000  Level FlightAware ADS-B
Fri 08:40:16 PM 44.8290 -67.4570 86° East 499 574 33,000  Level FlightAware ADS-B
Fri 08:40:56 PM 44.8350 -67.3280 86° East 500 575 33,000  Level FlightAware ADS-B
Fri 08:41:41 PM 44.8410 -67.1810 87° East 498 573 33,000  Level FlightAware ADS-B
Fri 08:42:21 PM 44.8460 -67.0530 87° East 498 573 33,000  Level FlightAware ADS-B
Fri 08:43:01 PM 44.8510 -66.9220 87° East 497 572 33,000  Level FlightAware ADS-B
Fri 08:43:46 PM 44.8570 -66.7770 87° East 497 572 33,000  Level FlightAware ADS-B
Fri 08:44:26 PM 44.8620 -66.6460 87° East 497 572 33,000  Level FlightAware ADS-B
Fri 08:45:06 PM 44.8660 -66.5190 87° East 497 572 33,000  Level FlightAware ADS-B
Fri 08:45:51 PM 44.8720 -66.3710 87° East 496 571 33,000 -141 Level FlightAware ADS-B
Fri 08:46:31 PM 44.8760 -66.2420 87° East 489 563 32,800 -706 Descending FlightAware ADS-B
Fri 08:47:16 PM 44.8810 -66.0980 87° East 476 548 32,000 -1,125 Descending FlightAware ADS-B
Fri 08:47:51 PM 44.8840 -65.9900 88° East 469 540 31,300 -1,271 Descending FlightAware ADS-B
Fri 08:48:41 PM 44.8890 -65.8390 87° East 460 529 30,200 -1,333 Descending FlightAware ADS-B
Fri 08:49:21 PM 44.8920 -65.7230 88° East 455 524 29,300 -1,425 Descending FlightAware ADS-B
Fri 08:50:01 PM 44.8950 -65.6030 88° East 451 519 28,300 -1,412 Descending FlightAware ADS-B
Fri 08:50:46 PM 44.8990 -65.4720 87° East 447 514 27,300 -1,341 Descending FlightAware ADS-B
Fri 08:51:26 PM 44.9020 -65.3550 88° East 441 507 26,400 -1,414 Descending FlightAware ADS-B
Fri 08:53:06 PM 44.9090 -65.0710 88° East 423 487 24,000 -1,500 Descending FlightAware ADS-B
Fri 08:53:46 PM 44.9110 -64.9630 88° East 416 479 22,900 -1,650 Descending FlightAware ADS-B
Fri 08:54:26 PM 44.9140 -64.8560 88° East 410 472 21,800 -1,553 Descending FlightAware ADS-B
Fri 08:55:11 PM 44.9160 -64.7400 89° East 403 464 20,700 -1,482 Descending FlightAware ADS-B
Fri 08:55:51 PM 44.9180 -64.6390 88° East 397 457 19,700 -1,765 Descending FlightAware ADS-B
Fri 08:56:36 PM 44.9280 -64.5180 83° East 403 464 18,200 -1,906 Descending FlightAware ADS-B
Fri 08:57:16 PM 44.9450 -64.4200 76° East 405 466 17,000 -1,600 Descending FlightAware ADS-B
Fri 08:57:51 PM 44.9590 -64.3350 77° East 400 460 16,200 -1,520 Descending FlightAware ADS-B
Fri 08:58:31 PM 44.9760 -64.2320 77° East 393 452 15,100 -776 Descending FlightAware ADS-B
Fri 08:59:16 PM 44.9950 -64.1280 75° East 393 452 15,100  Level FlightAware ADS-B
Fri 09:00:06 PM 45.0130 -64.0220 76° East 393 452 15,100  Level FlightAware ADS-B
Fri 09:00:46 PM 45.0280 -63.9370 76° East 393 452 15,100  Level FlightAware ADS-B
Fri 09:01:26 PM 45.0430 -63.8520 76° East 393 452 15,100  Level FlightAware ADS-B
Fri 09:02:06 PM 45.0580 -63.7670 76° East 393 452 15,100 -4,371 Level FlightAware ADS-B
Fri 09:02:36 PM 45.0500 -63.6333 76° East 360 414 10,000 -3,733 Descending Moncton Center
Fri 09:03:36 PM 45.0833 -63.5167 68° East 320 368 9,500 -650 Descending Moncton Center
Fri 09:04:36 PM 45.1000 -63.4000 79° East 290 334 8,700 -650 Descending Moncton Center
Fri 09:05:36 PM 45.1500 -63.3333 43° Northeast 260 299 8,200 -1,050 Descending Moncton Center
Fri 09:06:36 PM 45.1833 -63.2833 47° Northeast 210 242 6,600 -1,400 Descending Moncton Center
Fri 09:07:36 PM 45.1500 -63.2333 133° Southeast 180 207 5,400 -1,000 Descending Moncton Center
Fri 09:08:36 PM 45.1000 -63.2667 205° Southwest 180 207 4,600 -650 Descending Moncton Center
Fri 09:09:36 PM 45.0667 -63.3000 215° Southwest 180 207 4,100 -450 Descending Moncton Center
Fri 09:10:36 PM 45.0167 -63.3500 215° Southwest 180 207 3,700 -500 Descending Moncton Center
Fri 09:11:36 PM 44.9833 -63.3833 215° Southwest 180 207 3,100 -750 Descending Moncton Center
Fri 09:12:36 PM 44.9333 -63.4333 215° Southwest 160 184 2,200 -850 Descending Moncton Center
Fri 09:13:36 PM 44.9167 -63.4500 215° Southwest 140 161 1,400 -750 Descending Moncton Center
Fri 09:14:36 PM 44.8833 -63.4833 215° Southwest 130 150 700 -700 Descending Moncton Center

Login

Don't have an account? Register now (free) for customized features, flight alerts, and more!